sensor_id;sensor_type;location;lat;lon;timestamp;pressure;altitude;pressure_sealevel;temperature;humidity
58385;BME280;44185;47.844;8.966;2023-02-22T00:01:38;96058.63;;;0.07;100.00
58385;BME280;44185;47.844;8.966;2023-02-22T00:04:05;96061.75;;;0.14;100.00
58385;BME280;44185;47.844;8.966;2023-02-22T00:06:31;96063.31;;;0.18;100.00
58385;BME280;44185;47.844;8.966;2023-02-22T00:08:59;96059.41;;;0.27;100.00
58385;BME280;44185;47.844;8.966;2023-02-22T00:11:25;96061.34;;;0.24;100.00
58385;BME280;44185;47.844;8.966;2023-02-22T00:13:50;96058.56;;;0.27;100.00
58385;BME280;44185;47.844;8.966;2023-02-22T00:16:18;96056.75;;;0.29;100.00
58385;BME280;44185;47.844;8.966;2023-02-22T00:18:43;96063.09;;;0.23;100.00
58385;BME280;44185;47.844;8.966;2023-02-22T00:21:11;96054.97;;;0.29;100.00
58385;BME280;44185;47.844;8.966;2023-02-22T00:23:39;96059.72;;;0.21;100.00
58385;BME280;44185;47.844;8.966;2023-02-22T00:26:06;96060.84;;;0.15;100.00
58385;BME280;44185;47.844;8.966;2023-02-22T00:28:31;96065.44;;;0.10;100.00
58385;BME280;44185;47.844;8.966;2023-02-22T00:30:57;96051.94;;;0.21;100.00
58385;BME280;44185;47.844;8.966;2023-02-22T00:33:23;96053.19;;;0.12;100.00
58385;BME280;44185;47.844;8.966;2023-02-22T00:35:48;96058.66;;;0.06;100.00
58385;BME280;44185;47.844;8.966;2023-02-22T00:38:16;96047.44;;;0.05;100.00
58385;BME280;44185;47.844;8.966;2023-02-22T00:40:42;96051.38;;;-0.05;100.00
58385;BME280;44185;47.844;8.966;2023-02-22T00:43:08;96047.94;;;-0.06;100.00
58385;BME280;44185;47.844;8.966;2023-02-22T00:45:35;96048.44;;;-0.17;100.00
58385;BME280;44185;47.844;8.966;2023-02-22T00:48:01;96042.75;;;-0.06;100.00
58385;BME280;44185;47.844;8.966;2023-02-22T00:50:29;96052.97;;;-0.03;100.00
58385;BME280;44185;47.844;8.966;2023-02-22T00:52:55;96058.53;;;-0.10;100.00
58385;BME280;44185;47.844;8.966;2023-02-22T00:55:22;96055.03;;;-0.09;100.00
58385;BME280;44185;47.844;8.966;2023-02-22T00:57:48;96061.03;;;-0.27;100.00
58385;BME280;44185;47.844;8.966;2023-02-22T01:00:18;96053.34;;;-0.30;100.00
58385;BME280;44185;47.844;8.966;2023-02-22T01:02:44;96047.31;;;-0.30;100.00
58385;BME280;44185;47.844;8.966;2023-02-22T01:05:11;96039.44;;;-0.48;100.00
58385;BME280;44185;47.844;8.966;2023-02-22T01:07:37;96047.78;;;-0.41;100.00
58385;BME280;44185;47.844;8.966;2023-02-22T01:10:04;96048.19;;;-0.31;100.00
58385;BME280;44185;47.844;8.966;2023-02-22T01:12:30;96046.59;;;-0.34;100.00
58385;BME280;44185;47.844;8.966;2023-02-22T01:14:55;96045.25;;;-0.24;100.00
58385;BME280;44185;47.844;8.966;2023-02-22T01:17:22;96044.16;;;-0.37;100.00
58385;BME280;44185;47.844;8.966;2023-02-22T01:19:48;96041.66;;;-0.60;100.00
58385;BME280;44185;47.844;8.966;2023-02-22T01:22:13;96030.53;;;-0.63;100.00
58385;BME280;44185;47.844;8.966;2023-02-22T01:24:39;96032.41;;;-0.46;100.00
58385;BME280;44185;47.844;8.966;2023-02-22T01:27:04;96040.41;;;-0.31;100.00
58385;BME280;44185;47.844;8.966;2023-02-22T01:29:30;96038.31;;;-0.23;100.00
58385;BME280;44185;47.844;8.966;2023-02-22T01:31:56;96043.44;;;-0.21;100.00
58385;BME280;44185;47.844;8.966;2023-02-22T01:34:23;96044.19;;;-0.39;100.00
58385;BME280;44185;47.844;8.966;2023-02-22T01:36:49;96034.41;;;-0.53;100.00
58385;BME280;44185;47.844;8.966;2023-02-22T01:39:15;96035.56;;;-0.59;100.00
58385;BME280;44185;47.844;8.966;2023-02-22T01:41:40;96031.25;;;-0.60;100.00
58385;BME280;44185;47.844;8.966;2023-02-22T01:44:23;96039.31;;;-0.66;100.00
58385;BME280;44185;47.844;8.966;2023-02-22T01:46:50;96034.97;;;-0.65;100.00
58385;BME280;44185;47.844;8.966;2023-02-22T01:49:15;96034.06;;;-0.64;100.00
58385;BME280;44185;47.844;8.966;2023-02-22T01:51:45;96023.25;;;-0.55;100.00
58385;BME280;44185;47.844;8.966;2023-02-22T01:54:15;96023.03;;;-0.70;100.00
58385;BME280;44185;47.844;8.966;2023-02-22T01:56:47;96015.72;;;-0.81;100.00
58385;BME280;44185;47.844;8.966;2023-02-22T01:59:16;96015.22;;;-0.70;100.00
58385;BME280;44185;47.844;8.966;2023-02-22T02:01:42;96015.56;;;-0.77;100.00
58385;BME280;44185;47.844;8.966;2023-02-22T02:04:11;96003.41;;;-0.77;100.00
58385;BME280;44185;47.844;8.966;2023-02-22T02:06:37;96007.56;;;-0.73;100.00
58385;BME280;44185;47.844;8.966;2023-02-22T02:09:13;96014.94;;;-0.63;100.00
58385;BME280;44185;47.844;8.966;2023-02-22T02:11:41;96015.03;;;-0.65;100.00
58385;BME280;44185;47.844;8.966;2023-02-22T02:14:09;96003.09;;;-0.69;100.00
58385;BME280;44185;47.844;8.966;2023-02-22T02:16:37;96000.50;;;-0.69;100.00
58385;BME280;44185;47.844;8.966;2023-02-22T02:19:08;95991.84;;;-0.70;100.00
58385;BME280;44185;47.844;8.966;2023-02-22T02:22:11;95998.22;;;-0.58;100.00
58385;BME280;44185;47.844;8.966;2023-02-22T02:25:23;95991.72;;;-0.66;100.00
58385;BME280;44185;47.844;8.966;2023-02-22T02:31:22;95995.59;;;-0.96;100.00
58385;BME280;44185;47.844;8.966;2023-02-22T02:33:55;95986.06;;;-0.96;100.00
58385;BME280;44185;47.844;8.966;2023-02-22T02:36:29;95984.72;;;-0.85;100.00
58385;BME280;44185;47.844;8.966;2023-02-22T02:38:59;95976.31;;;-0.91;100.00
58385;BME280;44185;47.844;8.966;2023-02-22T02:41:32;95981.69;;;-0.95;100.00
58385;BME280;44185;47.844;8.966;2023-02-22T02:44:03;95979.38;;;-1.02;100.00
58385;BME280;44185;47.844;8.966;2023-02-22T02:46:32;95975.59;;;-0.94;100.00
58385;BME280;44185;47.844;8.966;2023-02-22T02:49:04;95970.50;;;-0.97;100.00
58385;BME280;44185;47.844;8.966;2023-02-22T02:51:35;95972.25;;;-0.98;100.00
58385;BME280;44185;47.844;8.966;2023-02-22T02:54:02;95982.81;;;-1.01;100.00
58385;BME280;44185;47.844;8.966;2023-02-22T02:56:28;95973.84;;;-0.94;100.00
58385;BME280;44185;47.844;8.966;2023-02-22T02:58:54;95968.56;;;-0.92;100.00
58385;BME280;44185;47.844;8.966;2023-02-22T03:01:39;95980.91;;;-0.97;100.00
58385;BME280;44185;47.844;8.966;2023-02-22T03:07:02;95980.91;;;-0.97;100.00
58385;BME280;44185;47.844;8.966;2023-02-22T03:09:38;95966.38;;;-1.02;100.00
58385;BME280;44185;47.844;8.966;2023-02-22T03:12:17;95973.44;;;-1.05;100.00
58385;BME280;44185;47.844;8.966;2023-02-22T03:14:52;95976.81;;;-1.03;100.00
58385;BME280;44185;47.844;8.966;2023-02-22T03:17:25;95968.25;;;-1.05;100.00
58385;BME280;44185;47.844;8.966;2023-02-22T03:19:57;95964.38;;;-1.16;100.00
58385;BME280;44185;47.844;8.966;2023-02-22T03:22:26;95976.19;;;-1.08;100.00
58385;BME280;44185;47.844;8.966;2023-02-22T03:24:58;95973.44;;;-1.05;100.00
58385;BME280;44185;47.844;8.966;2023-02-22T03:27:28;95973.53;;;-1.07;100.00
58385;BME280;44185;47.844;8.966;2023-02-22T03:29:58;95969.94;;;-1.04;100.00
58385;BME280;44185;47.844;8.966;2023-02-22T03:32:29;95971.69;;;-1.05;100.00
58385;BME280;44185;47.844;8.966;2023-02-22T03:34:58;95966.59;;;-1.06;100.00
58385;BME280;44185;47.844;8.966;2023-02-22T03:37:32;95962.03;;;-1.22;100.00
58385;BME280;44185;47.844;8.966;2023-02-22T03:40:00;95964.84;;;-1.27;100.00
58385;BME280;44185;47.844;8.966;2023-02-22T03:42:29;95961.34;;;-1.26;100.00
58385;BME280;44185;47.844;8.966;2023-02-22T03:44:57;95962.38;;;-1.30;100.00
58385;BME280;44185;47.844;8.966;2023-02-22T03:47:35;95957.69;;;-1.21;100.00
58385;BME280;44185;47.844;8.966;2023-02-22T03:50:06;95964.16;;;-1.11;100.00
58385;BME280;44185;47.844;8.966;2023-02-22T03:52:34;95967.06;;;-1.17;100.00
58385;BME280;44185;47.844;8.966;2023-02-22T03:55:01;95967.31;;;-1.24;100.00
58385;BME280;44185;47.844;8.966;2023-02-22T03:57:32;95966.75;;;-1.30;100.00
58385;BME280;44185;47.844;8.966;2023-02-22T03:59:59;95968.53;;;-1.32;100.00
58385;BME280;44185;47.844;8.966;2023-02-22T04:02:25;95968.47;;;-1.31;100.00
58385;BME280;44185;47.844;8.966;2023-02-22T04:04:50;95969.84;;;-1.43;100.00
58385;BME280;44185;47.844;8.966;2023-02-22T04:07:16;95963.88;;;-1.45;100.00
58385;BME280;44185;47.844;8.966;2023-02-22T04:09:43;95960.94;;;-1.37;100.00
58385;BME280;44185;47.844;8.966;2023-02-22T04:12:08;95966.13;;;-1.37;100.00
58385;BME280;44185;47.844;8.966;2023-02-22T04:14:34;95967.84;;;-1.36;100.00
58385;BME280;44185;47.844;8.966;2023-02-22T04:16:59;95965.50;;;-1.42;100.00
58385;BME280;44185;47.844;8.966;2023-02-22T04:19:25;95975.75;;;-1.39;100.00
58385;BME280;44185;47.844;8.966;2023-02-22T04:21:50;95974.31;;;-1.47;100.00
58385;BME280;44185;47.844;8.966;2023-02-22T04:24:16;95966.91;;;-1.35;100.00
58385;BME280;44185;47.844;8.966;2023-02-22T04:26:42;95971.41;;;-1.39;100.00
58385;BME280;44185;47.844;8.966;2023-02-22T04:29:08;95966.53;;;-1.47;100.00
58385;BME280;44185;47.844;8.966;2023-02-22T04:31:34;95962.56;;;-1.55;100.00
58385;BME280;44185;47.844;8.966;2023-02-22T04:33:59;95963.63;;;-1.60;100.00
58385;BME280;44185;47.844;8.966;2023-02-22T04:36:25;95966.00;;;-1.55;100.00
58385;BME280;44185;47.844;8.966;2023-02-22T04:38:51;95964.31;;;-1.56;100.00
58385;BME280;44185;47.844;8.966;2023-02-22T04:41:17;95964.59;;;-1.62;100.00
58385;BME280;44185;47.844;8.966;2023-02-22T04:43:44;95968.66;;;-1.57;100.00
58385;BME280;44185;47.844;8.966;2023-02-22T04:46:09;95959.13;;;-1.56;100.00
58385;BME280;44185;47.844;8.966;2023-02-22T04:48:35;95966.00;;;-1.55;100.00
58385;BME280;44185;47.844;8.966;2023-02-22T04:51:01;95958.34;;;-1.58;100.00
58385;BME280;44185;47.844;8.966;2023-02-22T04:53:26;95962.38;;;-1.51;100.00
58385;BME280;44185;47.844;8.966;2023-02-22T04:55:52;95962.25;;;-1.48;100.00
58385;BME280;44185;47.844;8.966;2023-02-22T04:58:17;95954.72;;;-1.54;100.00
58385;BME280;44185;47.844;8.966;2023-02-22T05:00:44;95959.06;;;-1.54;100.00
58385;BME280;44185;47.844;8.966;2023-02-22T05:03:09;95964.06;;;-1.50;100.00
58385;BME280;44185;47.844;8.966;2023-02-22T05:05:35;95957.78;;;-1.44;100.00
58385;BME280;44185;47.844;8.966;2023-02-22T05:08:00;95956.28;;;-1.50;100.00
58385;BME280;44185;47.844;8.966;2023-02-22T05:10:26;95954.34;;;-1.65;100.00
58385;BME280;44185;47.844;8.966;2023-02-22T05:12:51;95963.75;;;-1.63;100.00
58385;BME280;44185;47.844;8.966;2023-02-22T05:15:18;95956.31;;;-1.72;100.00
58385;BME280;44185;47.844;8.966;2023-02-22T05:17:46;95958.88;;;-1.71;100.00
58385;BME280;44185;47.844;8.966;2023-02-22T05:20:16;95955.69;;;-1.57;100.00
58385;BME280;44185;47.844;8.966;2023-02-22T05:22:42;95947.59;;;-1.49;100.00
58385;BME280;44185;47.844;8.966;2023-02-22T05:25:08;95955.69;;;-1.57;100.00
58385;BME280;44185;47.844;8.966;2023-02-22T05:27:33;95954.66;;;-1.52;100.00
58385;BME280;44185;47.844;8.966;2023-02-22T05:29:59;95957.50;;;-1.59;100.00
58385;BME280;44185;47.844;8.966;2023-02-22T05:32:24;95953.69;;;-1.71;100.00
58385;BME280;44185;47.844;8.966;2023-02-22T05:34:51;95957.78;;;-1.65;100.00
58385;BME280;44185;47.844;8.966;2023-02-22T05:37:16;95953.25;;;-1.60;100.00
58385;BME280;44185;47.844;8.966;2023-02-22T05:39:42;95954.72;;;-1.54;100.00
58385;BME280;44185;47.844;8.966;2023-02-22T05:42:07;95946.75;;;-1.49;100.00
58385;BME280;44185;47.844;8.966;2023-02-22T05:44:32;95949.06;;;-1.43;100.00
58385;BME280;44185;47.844;8.966;2023-02-22T05:46:58;95947.28;;;-1.41;100.00
58385;BME280;44185;47.844;8.966;2023-02-22T05:49:23;95943.81;;;-1.41;100.00
58385;BME280;44185;47.844;8.966;2023-02-22T05:51:50;95948.94;;;-1.40;100.00
58385;BME280;44185;47.844;8.966;2023-02-22T05:54:16;95940.47;;;-1.43;100.00
58385;BME280;44185;47.844;8.966;2023-02-22T05:56:41;95936.50;;;-1.52;100.00
58385;BME280;44185;47.844;8.966;2023-02-22T05:59:06;95942.66;;;-1.55;100.00
58385;BME280;44185;47.844;8.966;2023-02-22T06:01:32;95942.41;;;-1.49;100.00
58385;BME280;44185;47.844;8.966;2023-02-22T06:03:58;95948.28;;;-1.45;100.00
58385;BME280;44185;47.844;8.966;2023-02-22T06:06:23;95939.94;;;-1.52;100.00
58385;BME280;44185;47.844;8.966;2023-02-22T06:08:50;95937.22;;;-1.49;100.00
58385;BME280;44185;47.844;8.966;2023-02-22T06:11:15;95942.78;;;-1.58;100.00
58385;BME280;44185;47.844;8.966;2023-02-22T06:13:41;95941.06;;;-1.59;100.00
58385;BME280;44185;47.844;8.966;2023-02-22T06:16:07;95944.53;;;-1.59;100.00
58385;BME280;44185;47.844;8.966;2023-02-22T06:18:32;95943.19;;;-1.47;100.00
58385;BME280;44185;47.844;8.966;2023-02-22T06:20:58;95949.47;;;-1.31;100.00
58385;BME280;44185;47.844;8.966;2023-02-22T06:23:24;95945.13;;;-1.31;100.00
58385;BME280;44185;47.844;8.966;2023-02-22T06:25:51;95956.19;;;-1.27;100.00
58385;BME280;44185;47.844;8.966;2023-02-22T06:28:17;95951.00;;;-1.27;100.00
58385;BME280;44185;47.844;8.966;2023-02-22T06:30:42;95957.03;;;-1.27;100.00
58385;BME280;44185;47.844;8.966;2023-02-22T06:33:08;95954.84;;;-1.36;100.00
58385;BME280;44185;47.844;8.966;2023-02-22T06:35:34;95961.03;;;-1.39;100.00
58385;BME280;44185;47.844;8.966;2023-02-22T06:37:59;95962.84;;;-1.41;100.00
58385;BME280;44185;47.844;8.966;2023-02-22T06:40:25;95959.06;;;-1.33;100.00
58385;BME280;44185;47.844;8.966;2023-02-22T06:42:52;95969.38;;;-1.32;100.00
58385;BME280;44185;47.844;8.966;2023-02-22T06:45:17;95968.91;;;-1.21;100.00
58385;BME280;44185;47.844;8.966;2023-02-22T06:47:43;95971.00;;;-1.29;100.00
58385;BME280;44185;47.844;8.966;2023-02-22T06:50:18;95975.00;;;-1.22;100.00
58385;BME280;44185;47.844;8.966;2023-02-22T06:52:44;95977.59;;;-1.22;100.00
58385;BME280;44185;47.844;8.966;2023-02-22T06:55:09;95975.81;;;-1.20;100.00
58385;BME280;44185;47.844;8.966;2023-02-22T06:57:35;95976.03;;;-1.05;100.00
58385;BME280;44185;47.844;8.966;2023-02-22T07:00:02;95972.59;;;-1.06;100.00
58385;BME280;44185;47.844;8.966;2023-02-22T07:02:27;95973.06;;;-0.96;100.00
58385;BME280;44185;47.844;8.966;2023-02-22T07:04:53;95970.31;;;-0.93;100.00
58385;BME280;44185;47.844;8.966;2023-02-22T07:07:21;95968.44;;;-0.89;100.00
58385;BME280;44185;47.844;8.966;2023-02-22T07:09:46;95978.19;;;-0.94;100.00
58385;BME280;44185;47.844;8.966;2023-02-22T07:12:12;95973.03;;;-0.75;100.00
58385;BME280;44185;47.844;8.966;2023-02-22T07:14:38;95976.16;;;-0.68;100.00
58385;BME280;44185;47.844;8.966;2023-02-22T07:17:05;95976.41;;;-0.53;100.00
58385;BME280;44185;47.844;8.966;2023-02-22T07:19:30;95981.66;;;-0.55;100.00
58385;BME280;44185;47.844;8.966;2023-02-22T07:21:55;95983.41;;;-0.56;100.00
58385;BME280;44185;47.844;8.966;2023-02-22T07:24:21;95981.94;;;-0.61;100.00
58385;BME280;44185;47.844;8.966;2023-02-22T07:26:46;95980.16;;;-0.61;100.00
58385;BME280;44185;47.844;8.966;2023-02-22T07:29:12;95987.63;;;-0.53;100.00
58385;BME280;44185;47.844;8.966;2023-02-22T07:31:38;95992.47;;;-0.45;100.00
58385;BME280;44185;47.844;8.966;2023-02-22T07:34:05;95992.78;;;-0.32;100.00
58385;BME280;44185;47.844;8.966;2023-02-22T07:36:30;95979.97;;;-0.17;100.00
58385;BME280;44185;47.844;8.966;2023-02-22T07:38:56;95978.59;;;-0.07;100.00
58385;BME280;44185;47.844;8.966;2023-02-22T07:41:21;95979.09;;;0.02;100.00
58385;BME280;44185;47.844;8.966;2023-02-22T07:43:46;95989.84;;;0.13;100.00
58385;BME280;44185;47.844;8.966;2023-02-22T07:46:12;95985.25;;;0.18;100.00
58385;BME280;44185;47.844;8.966;2023-02-22T07:48:38;95981.72;;;0.19;100.00
58385;BME280;44185;47.844;8.966;2023-02-22T07:51:05;95981.06;;;0.33;100.00
58385;BME280;44185;47.844;8.966;2023-02-22T07:53:31;95979.22;;;0.36;100.00
58385;BME280;44185;47.844;8.966;2023-02-22T07:55:58;95983.41;;;0.38;100.00
58385;BME280;44185;47.844;8.966;2023-02-22T07:58:26;95981.38;;;0.45;100.00
58385;BME280;44185;47.844;8.966;2023-02-22T08:00:53;95981.66;;;0.57;100.00
58385;BME280;44185;47.844;8.966;2023-02-22T08:03:20;95976.91;;;0.65;100.00
58385;BME280;44185;47.844;8.966;2023-02-22T08:05:48;95974.06;;;0.70;100.00
58385;BME280;44185;47.844;8.966;2023-02-22T08:08:15;95977.84;;;0.82;100.00
58385;BME280;44185;47.844;8.966;2023-02-22T08:10:41;95977.34;;;0.91;100.00
58385;BME280;44185;47.844;8.966;2023-02-22T08:13:07;95971.44;;;1.05;100.00
58385;BME280;44185;47.844;8.966;2023-02-22T08:15:35;95969.28;;;1.14;100.00
58385;BME280;44185;47.844;8.966;2023-02-22T08:18:02;95972.81;;;1.29;100.00
58385;BME280;44185;47.844;8.966;2023-02-22T08:20:28;95979.13;;;1.41;100.00
58385;BME280;44185;47.844;8.966;2023-02-22T08:22:54;95973.50;;;1.49;100.00
58385;BME280;44185;47.844;8.966;2023-02-22T08:25:24;95976.81;;;1.52;100.00
58385;BME280;44185;47.844;8.966;2023-02-22T08:27:50;95974.34;;;1.49;100.00
58385;BME280;44185;47.844;8.966;2023-02-22T08:30:18;95963.28;;;1.46;100.00
58385;BME280;44185;47.844;8.966;2023-02-22T08:32:46;95962.59;;;1.58;100.00
58385;BME280;44185;47.844;8.966;2023-02-22T08:35:13;95969.09;;;1.67;100.00
58385;BME280;44185;47.844;8.966;2023-02-22T08:37:41;95972.53;;;1.84;100.00
58385;BME280;44185;47.844;8.966;2023-02-22T08:40:07;95975.97;;;2.00;100.00
58385;BME280;44185;47.844;8.966;2023-02-22T08:42:34;95967.41;;;1.98;100.00
58385;BME280;44185;47.844;8.966;2023-02-22T08:45:00;95973.50;;;2.14;100.00
58385;BME280;44185;47.844;8.966;2023-02-22T08:47:25;95966.50;;;2.30;100.00
58385;BME280;44185;47.844;8.966;2023-02-22T08:49:51;95964.47;;;2.36;100.00
58385;BME280;44185;47.844;8.966;2023-02-22T08:52:16;95963.09;;;2.44;100.00
58385;BME280;44185;47.844;8.966;2023-02-22T08:54:44;95963.88;;;2.61;100.00
58385;BME280;44185;47.844;8.966;2023-02-22T08:57:09;95965.66;;;2.61;100.00
58385;BME280;44185;47.844;8.966;2023-02-22T08:59:36;95964.50;;;2.81;100.00
58385;BME280;44185;47.844;8.966;2023-02-22T09:02:02;95959.56;;;2.91;100.00
58385;BME280;44185;47.844;8.966;2023-02-22T09:04:27;95965.97;;;3.00;100.00
58385;BME280;44185;47.844;8.966;2023-02-22T09:06:53;95961.63;;;3.15;100.00
58385;BME280;44185;47.844;8.966;2023-02-22T09:09:19;95964.13;;;3.17;100.00
58385;BME280;44185;47.844;8.966;2023-02-22T09:11:44;95963.19;;;3.32;100.00
58385;BME280;44185;47.844;8.966;2023-02-22T09:14:10;95964.03;;;3.33;100.00
58385;BME280;44185;47.844;8.966;2023-02-22T09:16:36;95963.38;;;3.44;100.00
58385;BME280;44185;47.844;8.966;2023-02-22T09:19:02;95961.88;;;3.54;100.00
58385;BME280;44185;47.844;8.966;2023-02-22T09:21:27;95960.84;;;3.57;100.00
58385;BME280;44185;47.844;8.966;2023-02-22T09:23:53;95956.84;;;3.66;100.00
58385;BME280;44185;47.844;8.966;2023-02-22T09:26:18;95952.78;;;3.75;100.00
58385;BME280;44185;47.844;8.966;2023-02-22T09:28:44;95950.81;;;3.78;100.00
58385;BME280;44185;47.844;8.966;2023-02-22T09:31:10;95950.69;;;3.80;100.00
58385;BME280;44185;47.844;8.966;2023-02-22T09:33:36;95949.97;;;3.78;100.00
58385;BME280;44185;47.844;8.966;2023-02-22T09:36:02;95949.22;;;3.76;100.00
58385;BME280;44185;47.844;8.966;2023-02-22T09:38:28;95952.03;;;3.73;100.00
58385;BME280;44185;47.844;8.966;2023-02-22T09:40:56;95953.31;;;3.80;100.00
58385;BME280;44185;47.844;8.966;2023-02-22T09:43:37;95944.25;;;3.86;100.00
58385;BME280;44185;47.844;8.966;2023-02-22T09:46:20;95942.63;;;3.98;100.00
58385;BME280;44185;47.844;8.966;2023-02-22T09:48:55;95943.59;;;4.10;100.00
58385;BME280;44185;47.844;8.966;2023-02-22T09:51:24;95942.22;;;4.32;100.00
58385;BME280;44185;47.844;8.966;2023-02-22T09:53:50;95935.06;;;4.21;100.00
58385;BME280;44185;47.844;8.966;2023-02-22T09:56:19;95943.69;;;4.36;100.00
58385;BME280;44185;47.844;8.966;2023-02-22T09:58:46;95943.19;;;4.57;100.00
58385;BME280;44185;47.844;8.966;2023-02-22T10:01:20;95940.50;;;4.72;100.00
58385;BME280;44185;47.844;8.966;2023-02-22T10:03:54;95937.97;;;4.83;100.00
58385;BME280;44185;47.844;8.966;2023-02-22T10:06:23;95946.91;;;4.94;100.00
58385;BME280;44185;47.844;8.966;2023-02-22T10:08:51;95937.16;;;4.96;100.00
58385;BME280;44185;47.844;8.966;2023-02-22T10:14:33;95938.00;;;5.22;100.00
58385;BME280;44185;47.844;8.966;2023-02-22T10:17:05;95935.25;;;5.24;100.00
58385;BME280;44185;47.844;8.966;2023-02-22T10:19:41;95927.00;;;5.17;100.00
58385;BME280;44185;47.844;8.966;2023-02-22T10:22:31;95928.75;;;5.30;100.00
58385;BME280;44185;47.844;8.966;2023-02-22T10:25:01;95931.78;;;5.74;99.94
58385;BME280;44185;47.844;8.966;2023-02-22T10:27:31;95921.03;;;5.90;100.00
58385;BME280;44185;47.844;8.966;2023-02-22T10:30:03;95919.00;;;6.07;97.73
58385;BME280;44185;47.844;8.966;2023-02-22T10:32:38;95923.91;;;6.37;96.34
58385;BME280;44185;47.844;8.966;2023-02-22T10:35:15;95923.22;;;6.46;92.41
58385;BME280;44185;47.844;8.966;2023-02-22T10:37:42;95927.47;;;6.72;94.62
58385;BME280;44185;47.844;8.966;2023-02-22T10:40:12;95921.53;;;6.81;94.67
58385;BME280;44185;47.844;8.966;2023-02-22T10:42:37;95916.59;;;6.88;93.65
58385;BME280;44185;47.844;8.966;2023-02-22T10:45:04;95920.00;;;6.90;91.81
58385;BME280;44185;47.844;8.966;2023-02-22T10:47:31;95911.50;;;6.98;90.85
58385;BME280;44185;47.844;8.966;2023-02-22T10:49:59;95916.66;;;7.11;92.20
58385;BME280;44185;47.844;8.966;2023-02-22T10:52:28;95907.19;;;7.31;93.85
58385;BME280;44185;47.844;8.966;2023-02-22T10:54:55;95906.94;;;7.69;91.76
58385;BME280;44185;47.844;8.966;2023-02-22T10:57:22;95905.72;;;7.73;89.94
58385;BME280;44185;47.844;8.966;2023-02-22T10:59:49;95903.47;;;7.68;91.74
58385;BME280;44185;47.844;8.966;2023-02-22T11:02:18;95903.41;;;7.92;90.44
58385;BME280;44185;47.844;8.966;2023-02-22T11:04:46;95904.78;;;8.40;88.70
58385;BME280;44185;47.844;8.966;2023-02-22T11:07:20;95890.47;;;8.54;85.53
58385;BME280;44185;47.844;8.966;2023-02-22T11:09:51;95888.06;;;8.51;84.61
58385;BME280;44185;47.844;8.966;2023-02-22T11:12:18;95888.72;;;8.10;85.81
58385;BME280;44185;47.844;8.966;2023-02-22T11:14:44;95883.06;;;8.15;86.68
58385;BME280;44185;47.844;8.966;2023-02-22T11:17:12;95876.47;;;8.42;86.90
58385;BME280;44185;47.844;8.966;2023-02-22T11:19:45;95878.75;;;8.68;86.33
58385;BME280;44185;47.844;8.966;2023-02-22T11:22:17;95880.66;;;8.78;84.78
58385;BME280;44185;47.844;8.966;2023-02-22T11:24:46;95877.41;;;8.96;85.17
58385;BME280;44185;47.844;8.966;2023-02-22T11:27:24;95867.88;;;9.05;82.92
58385;BME280;44185;47.844;8.966;2023-02-22T11:29:51;95869.34;;;8.97;80.95
58385;BME280;44185;47.844;8.966;2023-02-22T11:32:18;95865.00;;;9.18;83.39
58385;BME280;44185;47.844;8.966;2023-02-22T11:34:44;95864.84;;;9.19;82.55
58385;BME280;44185;47.844;8.966;2023-02-22T11:37:26;95857.94;;;9.28;81.75
58385;BME280;44185;47.844;8.966;2023-02-22T11:40:03;95858.06;;;8.95;80.87
58385;BME280;44185;47.844;8.966;2023-02-22T11:42:30;95848.69;;;9.44;82.11
58385;BME280;44185;47.844;8.966;2023-02-22T11:45:08;95839.00;;;9.74;81.33
58385;BME280;44185;47.844;8.966;2023-02-22T11:47:33;95842.94;;;10.00;81.82
58385;BME280;44185;47.844;8.966;2023-02-22T11:49:59;95838.06;;;10.35;78.05
58385;BME280;44185;47.844;8.966;2023-02-22T11:52:30;95831.19;;;10.62;78.67
58385;BME280;44185;47.844;8.966;2023-02-22T11:55:06;95826.88;;;10.71;75.08
58385;BME280;44185;47.844;8.966;2023-02-22T11:57:45;95833.31;;;10.39;76.96
58385;BME280;44185;47.844;8.966;2023-02-22T12:00:20;95826.38;;;10.08;76.28
58385;BME280;44185;47.844;8.966;2023-02-22T12:03:14;95820.66;;;10.12;78.85
58385;BME280;44185;47.844;8.966;2023-02-22T12:05:55;95829.00;;;10.38;75.23
58385;BME280;44185;47.844;8.966;2023-02-22T12:08:31;95812.56;;;10.34;76.03
58385;BME280;44185;47.844;8.966;2023-02-22T12:11:04;95811.19;;;10.20;75.86
58385;BME280;44185;47.844;8.966;2023-02-22T12:13:44;95811.88;;;10.32;76.63
58385;BME280;44185;47.844;8.966;2023-02-22T12:16:20;95808.91;;;10.65;77.61
58385;BME280;44185;47.844;8.966;2023-02-22T12:19:06;95809.59;;;10.77;76.35
58385;BME280;44185;47.844;8.966;2023-02-22T12:21:36;95802.97;;;10.91;75.59
58385;BME280;44185;47.844;8.966;2023-02-22T12:24:05;95807.53;;;10.99;75.40
58385;BME280;44185;47.844;8.966;2023-02-22T12:26:34;95802.84;;;11.21;76.34
58385;BME280;44185;47.844;8.966;2023-02-22T12:29:03;95800.69;;;11.06;72.88
58385;BME280;44185;47.844;8.966;2023-02-22T12:31:34;95801.81;;;11.04;72.56
58385;BME280;44185;47.844;8.966;2023-02-22T12:34:06;95799.38;;;11.20;73.47
58385;BME280;44185;47.844;8.966;2023-02-22T12:36:38;95805.00;;;11.07;72.79
58385;BME280;44185;47.844;8.966;2023-02-22T12:39:23;95797.69;;;11.48;72.83
58385;BME280;44185;47.844;8.966;2023-02-22T12:41:50;95802.03;;;11.85;70.86
58385;BME280;44185;47.844;8.966;2023-02-22T12:44:23;95801.03;;;11.68;70.58
58385;BME280;44185;47.844;8.966;2023-02-22T12:46:51;95790.09;;;11.99;70.85
58385;BME280;44185;47.844;8.966;2023-02-22T12:49:27;95790.50;;;12.13;69.58
58385;BME280;44185;47.844;8.966;2023-02-22T12:51:58;95787.91;;;12.40;69.99
58385;BME280;44185;47.844;8.966;2023-02-22T12:54:26;95790.53;;;12.31;69.60
58385;BME280;44185;47.844;8.966;2023-02-22T12:57:02;95776.00;;;12.71;68.65
58385;BME280;44185;47.844;8.966;2023-02-22T12:59:32;95768.59;;;12.83;69.79
58385;BME280;44185;47.844;8.966;2023-02-22T13:02:02;95778.50;;;13.07;68.22
58385;BME280;44185;47.844;8.966;2023-02-22T13:04:33;95778.28;;;13.35;67.58
58385;BME280;44185;47.844;8.966;2023-02-22T13:07:10;95768.66;;;13.34;66.52
58385;BME280;44185;47.844;8.966;2023-02-22T13:09:58;95767.13;;;13.23;64.74
58385;BME280;44185;47.844;8.966;2023-02-22T13:12:37;95770.38;;;13.09;65.87